Time;durP1;ratioP1;P1;durP2;ratioP2;P2;SDS_P1;SDS_P2;PMS_P1;PMS_P2;Temp;Humidity;BMP_temperature;BMP_pressure;BME280_temperature;BME280_humidity;BME280_pressure;Samples;Min_cycle;Max_cycle;Signal;HPM_P1;HPM_P2
2023/07/15 00:02:03;;;;;;;;;;;28.00;52.40;;;;;;5148195;27;42944;-78
2023/07/15 00:04:29;;;;;;;;;;;28.00;52.50;;;;;;5147215;27;43093;-78
2023/07/15 00:06:55;;;;;;;;;;;27.90;51.90;;;;;;5147972;27;42853;-78
2023/07/15 00:09:26;;;;;;;;;;;27.90;51.80;;;;;;5146464;27;43536;-79
2023/07/15 00:11:51;;;;;;;;;;;27.90;52.40;;;;;;5128349;27;43044;-79
2023/07/15 00:14:21;;;;;;;;;;;27.90;53.00;;;;;;5146847;27;42770;-78
2023/07/15 00:16:47;;;;;;;;;;;27.90;52.80;;;;;;5147502;27;43308;-78
2023/07/15 00:19:12;;;;;;;;;;;27.70;52.20;;;;;;5146798;27;42929;-78
2023/07/15 00:21:38;;;;;;;;;;;27.50;51.50;;;;;;5147131;27;42877;-79
2023/07/15 00:24:04;;;;;;;;;;;27.50;51.50;;;;;;5145179;27;43932;-80
2023/07/15 00:26:30;;;;;;;;;;;27.60;51.00;;;;;;5143373;27;42944;-79
2023/07/15 00:28:56;;;;;;;;;;;27.60;51.50;;;;;;5135647;27;42964;-78
2023/07/15 00:31:23;;;;;;;;;;;27.60;51.50;;;;;;5136563;27;43065;-78
2023/07/15 00:33:48;;;;;;;;;;;27.60;51.40;;;;;;5140102;27;42877;-78
2023/07/15 00:36:15;;;;;;;;;;;27.60;50.90;;;;;;5140434;27;42804;-78
2023/07/15 00:38:42;;;;;;;;;;;27.70;51.30;;;;;;5134398;27;42961;-79
2023/07/15 00:41:30;;;;;;;;;;;27.60;50.70;;;;;;5143766;27;42988;-79
2023/07/15 00:43:58;;;;;;;;;;;27.60;51.10;;;;;;5114597;27;42971;-78
2023/07/15 00:49:31;;;;;;;;;;;27.70;51.20;;;;;;5126413;27;43596;-78
2023/07/15 00:52:00;;;;;;;;;;;27.70;50.80;;;;;;5146917;27;42999;-78
2023/07/15 00:54:27;;;;;;;;;;;27.60;51.20;;;;;;5147236;27;43344;-78
2023/07/15 00:56:52;;;;;;;;;;;27.50;51.40;;;;;;5133488;27;43006;-78
2023/07/15 00:59:19;;;;;;;;;;;27.50;51.70;;;;;;5146628;27;43620;-79
2023/07/15 01:01:45;;;;;;;;;;;27.50;51.70;;;;;;5143389;27;43106;-78
2023/07/15 01:04:11;;;;;;;;;;;27.50;51.40;;;;;;5134084;27;43456;-78
2023/07/15 01:06:36;;;;;;;;;;;27.50;52.10;;;;;;5128470;27;42962;-79
2023/07/15 01:09:04;;;;;;;;;;;27.50;52.40;;;;;;5130371;27;43304;-78
2023/07/15 01:11:30;;;;;;;;;;;27.50;52.60;;;;;;5135187;27;42989;-78
2023/07/15 01:13:55;;;;;;;;;;;27.50;52.10;;;;;;5134310;27;42937;-78
2023/07/15 01:16:21;;;;;;;;;;;27.50;52.20;;;;;;5127835;27;43071;-78
2023/07/15 01:18:46;;;;;;;;;;;27.50;52.30;;;;;;5129202;27;42925;-78
2023/07/15 01:21:13;;;;;;;;;;;27.50;53.10;;;;;;5146249;27;42939;-78
2023/07/15 01:23:38;;;;;;;;;;;27.50;53.00;;;;;;5146221;27;43005;-78
2023/07/15 01:26:04;;;;;;;;;;;27.50;52.10;;;;;;5127854;27;42982;-78
2023/07/15 01:28:29;;;;;;;;;;;27.50;52.10;;;;;;5140839;27;42892;-79
2023/07/15 01:30:58;;;;;;;;;;;27.50;52.70;;;;;;5140099;27;43322;-78
2023/07/15 01:33:24;;;;;;;;;;;27.50;52.40;;;;;;5135298;27;43091;-78
2023/07/15 01:35:50;;;;;;;;;;;27.40;52.40;;;;;;5145963;27;43080;-78
2023/07/15 01:38:16;;;;;;;;;;;27.50;52.80;;;;;;5141767;27;42876;-78
2023/07/15 01:40:42;;;;;;;;;;;27.50;52.70;;;;;;5146526;27;42917;-78
2023/07/15 01:43:07;;;;;;;;;;;27.40;52.20;;;;;;5127538;27;44219;-77
2023/07/15 01:45:33;;;;;;;;;;;27.40;52.60;;;;;;5146086;27;42849;-78
2023/07/15 01:47:58;;;;;;;;;;;27.40;53.40;;;;;;5145673;27;42922;-78
2023/07/15 01:50:24;;;;;;;;;;;27.40;53.50;;;;;;5145612;27;42995;-79
2023/07/15 01:52:49;;;;;;;;;;;27.40;53.70;;;;;;5146087;27;43858;-78
2023/07/15 01:55:15;;;;;;;;;;;27.30;53.30;;;;;;5143413;27;43087;-78
2023/07/15 01:57:41;;;;;;;;;;;27.30;53.20;;;;;;5134840;27;42917;-78
2023/07/15 02:00:07;;;;;;;;;;;27.30;53.70;;;;;;5130514;27;43038;-78
2023/07/15 02:02:33;;;;;;;;;;;27.30;53.30;;;;;;5126581;27;42952;-79
2023/07/15 02:04:59;;;;;;;;;;;27.30;53.70;;;;;;5139253;27;42980;-79
2023/07/15 02:07:24;;;;;;;;;;;27.30;53.80;;;;;;5129101;27;43566;-78
2023/07/15 02:09:50;;;;;;;;;;;27.30;53.30;;;;;;5151360;27;43076;-78
2023/07/15 02:12:15;;;;;;;;;;;27.30;53.60;;;;;;5131134;27;43084;-78
2023/07/15 02:14:41;;;;;;;;;;;27.30;53.30;;;;;;5130785;27;43007;-78
2023/07/15 02:17:07;;;;;;;;;;;27.30;52.50;;;;;;5149411;27;43356;-79
2023/07/15 02:19:33;;;;;;;;;;;27.30;52.90;;;;;;5149907;27;43207;-78
2023/07/15 02:21:59;;;;;;;;;;;27.30;52.40;;;;;;5135307;27;43022;-78
2023/07/15 02:24:24;;;;;;;;;;;27.30;52.90;;;;;;5149757;27;42933;-77
2023/07/15 02:26:50;;;;;;;;;;;27.30;52.90;;;;;;5149283;27;43399;-78
2023/07/15 02:29:15;;;;;;;;;;;27.30;52.30;;;;;;5141051;27;43037;-78
2023/07/15 02:31:42;;;;;;;;;;;27.30;52.90;;;;;;5144464;27;42884;-78
2023/07/15 02:34:08;;;;;;;;;;;27.30;53.00;;;;;;5140648;27;42888;-78
2023/07/15 02:36:34;;;;;;;;;;;27.30;53.00;;;;;;5128668;27;42983;-78
2023/07/15 02:39:00;;;;;;;;;;;27.30;53.00;;;;;;5109653;27;42965;-78
2023/07/15 02:41:25;;;;;;;;;;;27.20;53.00;;;;;;5130083;27;43114;-78
2023/07/15 02:43:51;;;;;;;;;;;27.20;53.10;;;;;;5149549;27;42819;-78
2023/07/15 02:46:16;;;;;;;;;;;27.20;52.60;;;;;;5135377;27;42941;-78
2023/07/15 02:48:42;;;;;;;;;;;27.20;52.50;;;;;;5130447;27;43014;-79
2023/07/15 02:51:07;;;;;;;;;;;27.20;53.10;;;;;;5135488;27;43565;-78
2023/07/15 02:53:33;;;;;;;;;;;27.20;52.90;;;;;;5141259;27;42919;-78
2023/07/15 02:55:59;;;;;;;;;;;27.20;53.50;;;;;;5142532;27;43479;-78
2023/07/15 02:58:24;;;;;;;;;;;27.20;53.60;;;;;;5147896;27;42877;-79
2023/07/15 03:00:50;;;;;;;;;;;27.20;53.20;;;;;;5140558;27;43686;-78
2023/07/15 03:03:16;;;;;;;;;;;27.20;53.60;;;;;;5137315;27;42946;-78
2023/07/15 03:05:45;;;;;;;;;;;27.30;53.40;;;;;;5148909;27;42953;-79
2023/07/15 03:08:10;;;;;;;;;;;27.20;53.00;;;;;;5148108;27;42914;-79
2023/07/15 03:10:36;;;;;;;;;;;27.30;53.50;;;;;;5149427;27;43727;-78
2023/07/15 03:13:01;;;;;;;;;;;27.20;53.50;;;;;;5129631;27;43566;-78
2023/07/15 03:15:27;;;;;;;;;;;27.20;53.80;;;;;;5131385;27;42749;-78
2023/07/15 03:17:52;;;;;;;;;;;27.10;53.30;;;;;;5148934;27;42939;-78
2023/07/15 03:20:21;;;;;;;;;;;27.10;53.80;;;;;;5147051;27;43462;-78
2023/07/15 03:22:47;;;;;;;;;;;27.10;53.20;;;;;;5148610;27;43108;-78
2023/07/15 03:25:14;;;;;;;;;;;27.10;53.60;;;;;;5144914;27;43029;-78
2023/07/15 03:27:39;;;;;;;;;;;27.10;53.20;;;;;;5137751;27;43055;-79
2023/07/15 03:30:07;;;;;;;;;;;27.10;53.80;;;;;;5129380;27;43044;-78
2023/07/15 03:32:36;;;;;;;;;;;26.90;53.70;;;;;;5148281;27;42994;-78
2023/07/15 03:35:03;;;;;;;;;;;27.00;53.80;;;;;;5129135;27;44379;-78
2023/07/15 03:37:29;;;;;;;;;;;26.90;53.70;;;;;;5148404;27;42962;-77
2023/07/15 03:39:55;;;;;;;;;;;27.00;53.70;;;;;;5145792;27;42950;-78
2023/07/15 03:42:20;;;;;;;;;;;27.00;54.00;;;;;;5144512;27;42876;-79
2023/07/15 03:44:46;;;;;;;;;;;27.00;53.30;;;;;;5148274;27;42827;-78
2023/07/15 03:47:11;;;;;;;;;;;27.00;53.20;;;;;;5115033;27;43102;-77
2023/07/15 03:49:37;;;;;;;;;;;27.10;53.20;;;;;;5127611;27;43716;-78
2023/07/15 03:52:02;;;;;;;;;;;27.00;53.10;;;;;;5141253;27;42921;-78
2023/07/15 03:54:28;;;;;;;;;;;27.10;53.10;;;;;;5136279;27;43615;-79
2023/07/15 03:56:53;;;;;;;;;;;27.10;53.60;;;;;;5148359;27;42981;-78
2023/07/15 03:59:19;;;;;;;;;;;27.10;53.60;;;;;;5148220;27;43499;-78
2023/07/15 04:01:45;;;;;;;;;;;;;;;;;;5148105;27;42800;-79
2023/07/15 04:04:11;;;;;;;;;;;27.10;53.00;;;;;;5148260;27;42990;-79
2023/07/15 04:06:37;;;;;;;;;;;27.10;53.70;;;;;;5134070;27;42971;-79
2023/07/15 04:09:05;;;;;;;;;;;27.00;53.60;;;;;;5147551;27;42949;-78
2023/07/15 04:11:31;;;;;;;;;;;26.90;53.50;;;;;;5146210;27;43028;-78
2023/07/15 04:13:56;;;;;;;;;;;27.00;53.60;;;;;;5128961;27;43005;-79
2023/07/15 04:16:22;;;;;;;;;;;26.90;53.50;;;;;;5147157;27;42881;-78
2023/07/15 04:18:47;;;;;;;;;;;26.90;53.50;;;;;;5139251;27;43352;-78
2023/07/15 04:21:13;;;;;;;;;;;26.90;54.00;;;;;;5142995;27;43212;-78
2023/07/15 04:23:38;;;;;;;;;;;26.90;53.50;;;;;;5147093;27;43905;-79
2023/07/15 04:26:06;;;;;;;;;;;27.00;53.40;;;;;;5148154;27;42749;-78
2023/07/15 04:28:31;;;;;;;;;;;26.90;53.40;;;;;;5147563;27;43028;-78
2023/07/15 04:30:57;;;;;;;;;;;27.00;53.50;;;;;;5133480;27;43107;-79
2023/07/15 04:33:23;;;;;;;;;;;27.00;53.70;;;;;;5147924;27;43244;-78
2023/07/15 04:35:48;;;;;;;;;;;27.00;53.80;;;;;;5144165;27;43044;-79
2023/07/15 04:38:14;;;;;;;;;;;26.90;53.70;;;;;;5136812;27;42934;-78
2023/07/15 04:40:39;;;;;;;;;;;26.90;54.20;;;;;;5146378;27;43102;-78
2023/07/15 04:43:05;;;;;;;;;;;26.90;54.30;;;;;;5145359;27;43512;-78
2023/07/15 04:45:32;;;;;;;;;;;27.00;54.40;;;;;;5127064;27;42990;-78
2023/07/15 04:47:58;;;;;;;;;;;27.00;54.40;;;;;;5127221;27;43460;-79
2023/07/15 04:50:23;;;;;;;;;;;27.00;54.30;;;;;;5133519;27;43086;-79
2023/07/15 04:52:49;;;;;;;;;;;27.00;53.60;;;;;;5141924;27;43539;-78
2023/07/15 04:55:15;;;;;;;;;;;27.00;53.50;;;;;;5144036;27;42981;-78
2023/07/15 04:57:41;;;;;;;;;;;27.10;53.80;;;;;;5138144;27;43588;-78
2023/07/15 05:00:10;;;;;;;;;;;27.10;53.30;;;;;;5145471;27;42899;-78
2023/07/15 05:02:39;;;;;;;;;;;27.10;53.60;;;;;;5146437;27;42877;-78
2023/07/15 05:05:05;;;;;;;;;;;27.20;53.50;;;;;;5146423;27;42962;-78
2023/07/15 05:07:34;;;;;;;;;;;27.20;53.40;;;;;;5145923;27;42842;-78
2023/07/15 05:10:02;;;;;;;;;;;27.30;53.40;;;;;;5144805;27;44025;-77
2023/07/15 05:12:27;;;;;;;;;;;27.30;52.90;;;;;;5135246;27;42863;-79
2023/07/15 05:14:53;;;;;;;;;;;27.30;52.90;;;;;;5145523;27;43117;-79
2023/07/15 05:17:19;;;;;;;;;;;27.30;53.40;;;;;;5146437;27;42908;-78
2023/07/15 05:19:44;;;;;;;;;;;24.10;50.90;;;;;;5138606;27;42889;-78
2023/07/15 05:22:10;;;;;;;;;;;27.40;53.50;;;;;;5146713;27;43580;-79
2023/07/15 05:24:35;;;;;;;;;;;27.40;53.00;;;;;;5146124;27;42885;-79
2023/07/15 05:27:01;;;;;;;;;;;27.50;53.60;;;;;;5146077;27;43039;-78
2023/07/15 05:29:26;;;;;;;;;;;27.50;54.00;;;;;;5145828;27;42810;-78
2023/07/15 05:31:52;;;;;;;;;;;27.50;53.40;;;;;;5145959;27;42874;-78
2023/07/15 05:34:18;;;;;;;;;;;27.50;52.90;;;;;;5132773;27;43115;-78
2023/07/15 05:36:44;;;;;;;;;;;27.40;52.80;;;;;;5146859;27;43020;-78
2023/07/15 05:39:09;;;;;;;;;;;27.50;52.70;;;;;;5144016;27;43362;-78
2023/07/15 05:41:34;;;;;;;;;;;27.50;53.20;;;;;;5123928;27;44625;-78
2023/07/15 05:44:00;;;;;;;;;;;27.50;53.20;;;;;;5136459;27;43040;-78
2023/07/15 05:46:25;;;;;;;;;;;27.50;53.30;;;;;;5134715;27;43179;-78
2023/07/15 05:48:51;;;;;;;;;;;27.60;53.50;;;;;;5136989;27;42860;-79
2023/07/15 05:51:16;;;;;;;;;;;27.60;53.00;;;;;;5141129;27;43112;-79
2023/07/15 05:53:43;;;;;;;;;;;27.60;53.50;;;;;;5134920;27;43088;-79
2023/07/15 05:56:08;;;;;;;;;;;27.60;53.40;;;;;;5138183;27;43611;-80
2023/07/15 05:58:34;;;;;;;;;;;27.60;52.90;;;;;;5138108;27;43125;-79
2023/07/15 06:00:59;;;;;;;;;;;27.70;52.90;;;;;;5125319;27;43014;-79
2023/07/15 06:03:25;;;;;;;;;;;27.70;53.40;;;;;;5129885;27;42884;-79
2023/07/15 06:05:51;;;;;;;;;;;27.70;52.90;;;;;;5142465;27;43237;-81
2023/07/15 06:08:17;;;;;;;;;;;;;;;;;;5134130;27;42970;-85
2023/07/15 06:10:43;;;;;;;;;;;27.70;52.70;;;;;;5134385;27;42934;-89
2023/07/15 06:13:08;;;;;;;;;;;27.80;52.50;;;;;;5146181;27;42913;-86
2023/07/15 06:15:36;;;;;;;;;;;27.80;53.00;;;;;;5128043;27;43398;-84
2023/07/15 06:18:02;;;;;;;;;;;27.80;52.50;;;;;;5130142;27;43129;-84
2023/07/15 06:20:27;;;;;;;;;;;27.90;52.40;;;;;;5133863;27;43898;-90
2023/07/15 06:22:53;;;;;;;;;;;27.90;52.80;;;;;;5131882;27;42927;-89
2023/07/15 06:25:18;;;;;;;;;;;27.90;52.40;;;;;;5128214;27;44015;-88
2023/07/15 06:27:46;;;;;;;;;;;28.00;52.30;;;;;;5140166;27;60704;-90
2023/07/15 06:30:11;;;;;;;;;;;28.00;52.80;;;;;;5139987;27;43793;-83
2023/07/15 06:32:37;;;;;;;;;;;28.00;52.30;;;;;;5139758;27;43131;-81
2023/07/15 06:35:03;;;;;;;;;;;28.00;52.70;;;;;;5142222;27;42992;-89
2023/07/15 06:37:28;;;;;;;;;;;28.00;52.20;;;;;;5137815;27;43118;-82
2023/07/15 06:39:54;;;;;;;;;;;28.10;52.10;;;;;;5144413;27;43577;-88
2023/07/15 06:42:19;;;;;;;;;;;28.00;52.10;;;;;;5136058;27;43020;-87
2023/07/15 06:44:45;;;;;;;;;;;28.00;52.60;;;;;;5139108;27;43477;-80
2023/07/15 06:47:10;;;;;;;;;;;28.00;52.70;;;;;;5136566;27;43029;-87
2023/07/15 06:49:36;;;;;;;;;;;28.00;52.10;;;;;;5132153;27;42996;-84
2023/07/15 06:52:02;;;;;;;;;;;28.00;52.10;;;;;;5136768;27;43231;-85
2023/07/15 06:54:29;;;;;;;;;;;28.00;52.20;;;;;;5141335;27;43376;-84
2023/07/15 06:56:54;;;;;;;;;;;28.00;52.80;;;;;;5122272;27;42955;-80
2023/07/15 06:59:20;;;;;;;;;;;28.00;52.90;;;;;;5142257;27;42927;-80
2023/07/15 07:01:45;;;;;;;;;;;28.00;53.00;;;;;;5140051;27;42944;-79
2023/07/15 07:04:11;;;;;;;;;;;28.00;53.30;;;;;;5144997;27;43979;-80
2023/07/15 07:06:36;;;;;;;;;;;28.00;53.40;;;;;;5145510;27;43096;-78
2023/07/15 07:09:02;;;;;;;;;;;28.00;53.50;;;;;;5144023;27;42998;-79
2023/07/15 07:11:27;;;;;;;;;;;28.00;53.10;;;;;;5141472;27;42966;-79
2023/07/15 07:13:53;;;;;;;;;;;28.00;53.80;;;;;;5142361;27;43616;-79
2023/07/15 07:16:18;;;;;;;;;;;28.10;53.30;;;;;;5142807;27;42994;-79
2023/07/15 07:18:44;;;;;;;;;;;28.10;53.90;;;;;;5142030;27;44476;-80
2023/07/15 07:21:10;;;;;;;;;;;28.00;53.30;;;;;;5145317;27;43084;-78
2023/07/15 07:23:36;;;;;;;;;;;28.00;53.90;;;;;;5147317;27;42990;-79
2023/07/15 07:26:01;;;;;;;;;;;28.10;53.50;;;;;;5146689;27;43001;-79
2023/07/15 07:28:44;;;;;;;;;;;28.00;53.90;;;;;;5143958;27;43544;-79
2023/07/15 07:31:10;;;;;;;;;;;28.10;53.60;;;;;;5138617;27;43010;-79
2023/07/15 07:33:36;;;;;;;;;;;28.10;54.00;;;;;;5147362;27;43369;-78
2023/07/15 07:36:02;;;;;;;;;;;28.10;53.60;;;;;;5145384;27;43004;-79
2023/07/15 07:38:28;;;;;;;;;;;28.10;53.60;;;;;;5145001;27;43407;-78
2023/07/15 07:40:53;;;;;;;;;;;28.10;53.70;;;;;;5148475;27;42923;-78
2023/07/15 07:43:18;;;;;;;;;;;28.10;54.10;;;;;;5144108;27;43668;-78
2023/07/15 07:45:44;;;;;;;;;;;28.10;53.60;;;;;;5138282;27;43278;-78
2023/07/15 07:48:10;;;;;;;;;;;28.10;54.10;;;;;;5146563;27;43408;-78
2023/07/15 07:50:36;;;;;;;;;;;28.10;54.10;;;;;;5137934;27;43034;-77
2023/07/15 07:53:01;;;;;;;;;;;28.10;54.20;;;;;;5131228;27;43665;-79
2023/07/15 07:55:27;;;;;;;;;;;28.20;54.20;;;;;;5137581;27;42932;-78
2023/07/15 07:57:52;;;;;;;;;;;28.10;53.70;;;;;;5128579;27;42913;-78
2023/07/15 08:00:18;;;;;;;;;;;28.20;53.70;;;;;;5138071;27;42877;-78
2023/07/15 08:02:43;;;;;;;;;;;28.20;54.30;;;;;;5144687;27;42942;-78
2023/07/15 08:05:09;;;;;;;;;;;28.20;54.30;;;;;;5128672;27;42997;-79
2023/07/15 08:07:34;;;;;;;;;;;28.20;53.80;;;;;;5128068;27;43985;-78
2023/07/15 08:10:00;;;;;;;;;;;28.20;53.80;;;;;;5128540;27;42930;-79
2023/07/15 08:12:25;;;;;;;;;;;28.20;53.90;;;;;;5141242;27;43138;-79
2023/07/15 08:14:51;;;;;;;;;;;28.20;53.90;;;;;;5128333;27;42980;-78
2023/07/15 08:17:17;;;;;;;;;;;28.20;54.40;;;;;;5141654;27;42914;-79
2023/07/15 08:19:43;;;;;;;;;;;28.20;54.30;;;;;;5127715;27;42846;-78
2023/07/15 08:22:09;;;;;;;;;;;28.20;54.40;;;;;;5143082;27;42991;-78
2023/07/15 08:24:34;;;;;;;;;;;28.20;53.90;;;;;;5119263;27;43139;-78
2023/07/15 08:27:00;;;;;;;;;;;28.20;54.00;;;;;;5141760;27;42967;-78
2023/07/15 08:29:25;;;;;;;;;;;28.20;54.50;;;;;;5137486;27;42846;-78
2023/07/15 08:31:51;;;;;;;;;;;28.20;54.00;;;;;;5131043;27;42923;-78
2023/07/15 08:34:16;;;;;;;;;;;28.20;54.00;;;;;;5128016;27;42974;-78
2023/07/15 08:36:42;;;;;;;;;;;28.20;54.10;;;;;;5144428;27;43168;-78
2023/07/15 08:39:07;;;;;;;;;;;28.20;54.10;;;;;;5147635;27;43184;-79
2023/07/15 08:41:33;;;;;;;;;;;28.20;54.10;;;;;;5132934;27;42935;-79
2023/07/15 08:43:58;;;;;;;;;;;28.20;54.10;;;;;;5119103;27;43090;-78
2023/07/15 08:46:28;;;;;;;;;;;28.20;54.20;;;;;;5134599;27;42944;-81
2023/07/15 08:48:55;;;;;;;;;;;28.20;54.60;;;;;;5147159;27;43212;-80
2023/07/15 08:51:21;;;;;;;;;;;28.20;54.30;;;;;;5145858;27;43159;-79
2023/07/15 08:53:47;;;;;;;;;;;28.20;54.30;;;;;;5147077;27;43047;-79
2023/07/15 08:56:13;;;;;;;;;;;28.20;54.80;;;;;;5146476;27;42945;-79
2023/07/15 08:58:38;;;;;;;;;;;28.20;54.50;;;;;;5134044;27;42873;-79
2023/07/15 09:01:04;;;;;;;;;;;28.20;54.60;;;;;;5130805;27;42840;-79
2023/07/15 09:03:29;;;;;;;;;;;28.20;55.10;;;;;;5136656;27;42969;-79
2023/07/15 09:05:55;;;;;;;;;;;28.30;55.30;;;;;;5131248;27;43024;-79
2023/07/15 09:08:20;;;;;;;;;;;28.30;55.40;;;;;;5126167;27;42963;-79
2023/07/15 09:10:56;;;;;;;;;;;28.30;55.40;;;;;;5129735;27;43653;-80
2023/07/15 09:13:26;;;;;;;;;;;28.30;55.90;;;;;;5124759;27;42981;-79
2023/07/15 09:15:52;;;;;;;;;;;28.30;56.00;;;;;;5126825;27;43826;-79
2023/07/15 09:18:18;;;;;;;;;;;28.30;56.20;;;;;;5138073;27;43021;-80
2023/07/15 09:20:44;;;;;;;;;;;28.30;56.30;;;;;;5120752;27;44335;-80
2023/07/15 09:23:09;;;;;;;;;;;28.30;55.80;;;;;;5127225;27;42920;-79
2023/07/15 09:25:36;;;;;;;;;;;28.30;56.40;;;;;;5131761;27;43031;-80
2023/07/15 09:28:01;;;;;;;;;;;28.30;56.30;;;;;;5146119;27;42996;-80
2023/07/15 09:30:27;;;;;;;;;;;28.40;56.20;;;;;;5141003;27;44017;-78
2023/07/15 09:32:52;;;;;;;;;;;28.40;56.10;;;;;;5133789;27;42934;-79
2023/07/15 09:35:20;;;;;;;;;;;28.30;55.70;;;;;;5135819;27;42904;-79
2023/07/15 09:37:46;;;;;;;;;;;28.40;56.20;;;;;;5133818;27;42922;-80
2023/07/15 09:40:12;;;;;;;;;;;28.40;55.60;;;;;;5131627;27;43961;-79
2023/07/15 09:43:03;;;;;;;;;;;28.40;56.10;;;;;;5137798;27;42956;-80
2023/07/15 09:45:36;;;;;;;;;;;28.40;55.80;;;;;;5127337;27;43668;-80
2023/07/15 09:48:03;;;;;;;;;;;28.40;56.00;;;;;;5143152;27;42977;-80
2023/07/15 09:50:31;;;;;;;;;;;28.40;55.50;;;;;;5106437;27;44446;-78
2023/07/15 09:52:57;;;;;;;;;;;28.40;55.40;;;;;;5133549;27;43256;-80
2023/07/15 09:55:23;;;;;;;;;;;28.40;55.60;;;;;;5142671;27;43465;-80
2023/07/15 09:57:51;;;;;;;;;;;28.40;55.20;;;;;;5132740;27;43149;-81
2023/07/15 10:00:18;;;;;;;;;;;28.40;55.10;;;;;;5117706;27;43870;-80
2023/07/15 10:02:46;;;;;;;;;;;28.40;54.80;;;;;;5144723;27;42934;-81
2023/07/15 10:05:14;;;;;;;;;;;28.40;55.00;;;;;;5135688;27;43895;-79
2023/07/15 10:07:40;;;;;;;;;;;28.40;55.30;;;;;;5131612;27;43001;-79
2023/07/15 10:10:07;;;;;;;;;;;28.50;55.50;;;;;;5122452;27;44450;-81
2023/07/15 10:12:34;;;;;;;;;;;28.50;55.00;;;;;;5129493;27;42995;-82
2023/07/15 10:15:00;;;;;;;;;;;28.50;55.20;;;;;;5145325;27;42925;-80
2023/07/15 10:17:32;;;;;;;;;;;28.50;55.10;;;;;;5130227;27;43051;-79
2023/07/15 10:20:05;;;;;;;;;;;28.50;55.70;;;;;;5133166;27;43697;-80
2023/07/15 10:22:34;;;;;;;;;;;28.50;55.60;;;;;;5132292;27;43026;-80
2023/07/15 10:25:01;;;;;;;;;;;28.50;56.00;;;;;;5138727;27;42813;-79
2023/07/15 10:27:31;;;;;;;;;;;28.50;55.80;;;;;;5132132;27;42979;-80
2023/07/15 10:30:15;;;;;;;;;;;28.50;56.40;;;;;;5133791;27;43586;-79
2023/07/15 10:33:08;;;;;;;;;;;28.50;56.70;;;;;;5137985;27;44002;-77
2023/07/15 10:35:54;;;;;;;;;;;28.60;57.00;;;;;;5140532;27;43489;-79
2023/07/15 10:38:23;;;;;;;;;;;28.60;57.20;;;;;;5136037;27;42856;-80
2023/07/15 10:41:00;;;;;;;;;;;26.40;56.00;;;;;;5137002;27;45070;-80
2023/07/15 10:43:34;;;;;;;;;;;28.60;57.30;;;;;;5136995;27;43574;-79
2023/07/15 10:46:04;;;;;;;;;;;28.60;57.50;;;;;;5128193;27;44611;-81
2023/07/15 10:48:29;;;;;;;;;;;28.60;57.70;;;;;;5147197;27;42843;-80
2023/07/15 10:50:55;;;;;;;;;;;28.60;57.10;;;;;;5129472;27;44959;-79
2023/07/15 10:53:26;;;;;;;;;;;28.60;57.20;;;;;;5139392;27;42911;-80
2023/07/15 10:55:54;;;;;;;;;;;28.60;57.10;;;;;;5127332;27;43058;-79
2023/07/15 10:58:20;;;;;;;;;;;28.60;57.10;;;;;;5134042;27;43153;-81
2023/07/15 11:00:46;;;;;;;;;;;28.60;57.20;;;;;;5134938;27;43391;-79
2023/07/15 11:03:11;;;;;;;;;;;28.60;57.20;;;;;;5141781;27;43178;-80
2023/07/15 11:05:37;;;;;;;;;;;28.70;57.40;;;;;;5140609;27;43547;-80
2023/07/15 11:08:06;;;;;;;;;;;28.70;57.30;;;;;;5136975;27;42750;-80
2023/07/15 11:10:32;;;;;;;;;;;28.60;57.40;;;;;;5127432;27;43081;-81
2023/07/15 11:13:09;;;;;;;;;;;28.60;57.40;;;;;;5127152;27;43758;-79
2023/07/15 11:15:35;;;;;;;;;;;28.70;57.50;;;;;;5126338;27;42967;-79
2023/07/15 11:18:01;;;;;;;;;;;28.70;57.20;;;;;;5131872;27;43199;-79
2023/07/15 11:20:26;;;;;;;;;;;28.70;57.40;;;;;;5138499;27;43436;-79
2023/07/15 11:22:52;;;;;;;;;;;28.70;57.60;;;;;;5140656;27;42880;-80
2023/07/15 11:25:18;;;;;;;;;;;28.70;57.60;;;;;;5132615;27;43074;-81
2023/07/15 11:27:43;;;;;;;;;;;28.70;57.40;;;;;;5140882;27;43091;-80
2023/07/15 11:30:09;;;;;;;;;;;28.70;57.60;;;;;;5137375;27;43457;-80
2023/07/15 11:32:34;;;;;;;;;;;28.70;57.50;;;;;;5138991;27;43257;-81
2023/07/15 11:35:09;;;;;;;;;;;28.70;57.40;;;;;;5141798;27;44121;-79
2023/07/15 11:37:41;;;;;;;;;;;28.70;57.90;;;;;;5128418;27;42830;-80
2023/07/15 11:40:07;;;;;;;;;;;28.70;57.50;;;;;;5136799;27;43759;-80
2023/07/15 11:42:35;;;;;;;;;;;28.70;57.70;;;;;;5135054;27;42829;-80
2023/07/15 11:45:00;;;;;;;;;;;28.70;57.70;;;;;;5123199;27;42974;-79
2023/07/15 11:47:26;;;;;;;;;;;28.70;57.70;;;;;;5138299;27;42949;-81
2023/07/15 11:49:52;;;;;;;;;;;28.70;57.70;;;;;;5135106;27;43007;-83
2023/07/15 11:52:22;;;;;;;;;;;28.70;57.60;;;;;;5135013;27;42978;-82
2023/07/15 11:54:47;;;;;;;;;;;28.70;57.50;;;;;;5130985;27;44452;-81
2023/07/15 11:57:22;;;;;;;;;;;28.70;58.00;;;;;;5133533;27;42762;-81
2023/07/15 11:59:49;;;;;;;;;;;28.80;57.70;;;;;;5135020;27;43109;-81
2023/07/15 12:02:14;;;;;;;;;;;28.80;57.30;;;;;;5112360;27;43313;-84
2023/07/15 12:04:41;;;;;;;;;;;28.80;57.80;;;;;;5118425;27;43110;-80
2023/07/15 12:07:07;;;;;;;;;;;28.70;58.10;;;;;;5141907;27;43370;-83
2023/07/15 12:09:33;;;;;;;;;;;28.80;58.20;;;;;;5139106;27;43710;-85
2023/07/15 12:11:59;;;;;;;;;;;28.80;58.00;;;;;;5138560;27;42991;-85
2023/07/15 12:14:25;;;;;;;;;;;28.80;58.00;;;;;;5131734;27;43083;-84
2023/07/15 12:16:53;;;;;;;;;;;28.80;58.20;;;;;;5141127;27;43017;-83
2023/07/15 12:19:23;;;;;;;;;;;28.80;58.10;;;;;;5138199;27;43046;-86
2023/07/15 12:21:48;;;;;;;;;;;28.80;58.00;;;;;;5139953;27;42938;-83
2023/07/15 12:24:14;;;;;;;;;;;28.80;58.00;;;;;;5136127;27;43353;-85
2023/07/15 12:26:39;;;;;;;;;;;28.80;58.40;;;;;;5128071;27;43444;-81
2023/07/15 12:29:05;;;;;;;;;;;28.80;58.40;;;;;;5133391;27;43868;-80
2023/07/15 12:31:30;;;;;;;;;;;28.80;58.20;;;;;;5132560;27;43088;-82
2023/07/15 12:33:56;;;;;;;;;;;28.80;58.70;;;;;;5139602;27;43699;-81
2023/07/15 12:36:24;;;;;;;;;;;28.80;58.80;;;;;;5129293;27;42958;-84
2023/07/15 12:38:50;;;;;;;;;;;28.70;58.50;;;;;;5140418;27;42919;-84
2023/07/15 12:41:15;;;;;;;;;;;28.80;58.30;;;;;;5146317;27;42966;-82
2023/07/15 12:43:41;;;;;;;;;;;28.80;58.80;;;;;;5123544;27;43904;-81
2023/07/15 12:46:07;;;;;;;;;;;28.80;58.80;;;;;;5132040;27;43595;-82
2023/07/15 12:48:32;;;;;;;;;;;28.80;58.80;;;;;;5141838;27;44055;-84
2023/07/15 12:50:58;;;;;;;;;;;28.90;58.70;;;;;;5128115;27;42950;-82
2023/07/15 12:53:24;;;;;;;;;;;28.90;58.30;;;;;;5129917;27;43067;-81
2023/07/15 12:55:50;;;;;;;;;;;28.90;58.40;;;;;;5137606;27;42954;-82
2023/07/15 12:58:16;;;;;;;;;;;28.90;58.90;;;;;;5113310;27;43533;-83
2023/07/15 13:00:42;;;;;;;;;;;28.90;58.90;;;;;;5134497;27;42910;-81
2023/07/15 13:03:07;;;;;;;;;;;28.90;58.70;;;;;;5137722;27;42996;-85
2023/07/15 13:05:33;;;;;;;;;;;28.90;58.30;;;;;;5138698;27;42824;-81
2023/07/15 13:07:59;;;;;;;;;;;28.90;58.60;;;;;;5132278;27;43237;-81
2023/07/15 13:10:25;;;;;;;;;;;28.90;58.60;;;;;;5131471;27;43283;-81
2023/07/15 13:12:50;;;;;;;;;;;28.90;58.60;;;;;;5138341;27;43013;-82
2023/07/15 13:15:16;;;;;;;;;;;28.90;58.30;;;;;;5137219;27;42981;-83
2023/07/15 13:17:41;;;;;;;;;;;28.90;58.40;;;;;;5142175;27;43005;-82
2023/07/15 13:20:10;;;;;;;;;;;28.80;58.80;;;;;;5135405;27;43514;-82
2023/07/15 13:22:36;;;;;;;;;;;28.90;58.70;;;;;;5129914;27;43656;-81
2023/07/15 13:25:02;;;;;;;;;;;28.90;58.20;;;;;;5118146;27;42843;-81
2023/07/15 13:27:28;;;;;;;;;;;28.90;58.00;;;;;;5113294;27;44526;-81
2023/07/15 13:29:53;;;;;;;;;;;28.90;58.50;;;;;;5130764;27;43057;-84
2023/07/15 13:32:18;;;;;;;;;;;28.90;58.40;;;;;;5135837;27;43695;-84
2023/07/15 13:34:44;;;;;;;;;;;28.90;57.90;;;;;;5119601;27;43226;-81
2023/07/15 13:37:09;;;;;;;;;;;28.80;57.70;;;;;;5136196;27;43760;-80
2023/07/15 13:39:36;;;;;;;;;;;28.90;57.70;;;;;;5137906;27;42937;-83
2023/07/15 13:42:02;;;;;;;;;;;28.90;57.90;;;;;;5131606;27;42939;-81
2023/07/15 13:44:28;;;;;;;;;;;28.80;57.80;;;;;;5131200;27;42995;-83
2023/07/15 13:46:54;;;;;;;;;;;28.90;58.40;;;;;;5136651;27;42971;-80
2023/07/15 13:49:19;;;;;;;;;;;28.90;58.30;;;;;;5145391;27;43033;-80
2023/07/15 13:51:45;;;;;;;;;;;28.90;58.90;;;;;;5125702;27;43641;-80
2023/07/15 13:54:10;;;;;;;;;;;28.90;58.40;;;;;;5142815;27;43296;-80
2023/07/15 13:56:35;;;;;;;;;;;28.90;58.30;;;;;;5132787;27;43720;-81
2023/07/15 13:59:01;;;;;;;;;;;28.90;58.30;;;;;;5136865;27;42964;-82
2023/07/15 14:01:26;;;;;;;;;;;29.00;57.90;;;;;;5135149;27;43032;-82
2023/07/15 14:03:52;;;;;;;;;;;29.00;58.40;;;;;;5126949;27;42969;-82
2023/07/15 14:06:19;;;;;;;;;;;29.00;58.20;;;;;;5124594;27;45862;-82
2023/07/15 14:08:45;;;;;;;;;;;29.00;57.90;;;;;;5137309;27;43189;-82
2023/07/15 14:11:10;;;;;;;;;;;29.00;57.80;;;;;;5133616;27;42869;-81
2023/07/15 14:13:36;;;;;;;;;;;28.90;57.10;;;;;;5137000;27;42884;-81
2023/07/15 14:16:03;;;;;;;;;;;29.00;57.30;;;;;;5130133;27;43721;-84
2023/07/15 14:18:28;;;;;;;;;;;29.00;57.30;;;;;;5138345;27;42937;-83